Time;durP1;ratioP1;P1;durP2;ratioP2;P2;SDS_P1;SDS_P2;PMS_P1;PMS_P2;Temp;Humidity;BMP_temperature;BMP_pressure;BME280_temperature;BME280_humidity;BME280_pressure;Samples;Min_cycle;Max_cycle;Signal;HPM_P1;HPM_P2
2024/03/22 00:00:04;;;;;;;8.45;3.13;;;;;;;11.80;85.88;101213.22;5046374;28;20091;-64
2024/03/22 00:02:38;;;;;;;9.90;2.80;;;;;;;11.74;86.15;101212.69;5059558;28;20395;-65
2024/03/22 00:05:04;;;;;;;10.23;3.55;;;;;;;11.79;85.93;101207.03;5027677;28;20109;-65
2024/03/22 00:07:29;;;;;;;7.40;3.53;;;;;;;11.87;85.60;101209.88;5031005;28;20112;-64
2024/03/22 00:09:55;;;;;;;5.57;2.75;;;;;;;11.90;86.15;101195.72;5030354;28;20108;-65
2024/03/22 00:12:20;;;;;;;5.55;2.83;;;;;;;11.98;85.54;101192.03;5051185;28;20415;-65
2024/03/22 00:14:46;;;;;;;7.15;3.08;;;;;;;11.88;85.52;101182.56;5037537;28;20141;-64
2024/03/22 00:17:11;;;;;;;9.15;3.53;;;;;;;11.89;85.27;101175.22;5034879;28;20029;-65
2024/03/22 00:19:37;;;;;;;7.40;3.22;;;;;;;11.94;85.10;101170.38;5034098;28;20032;-65
2024/03/22 00:22:02;;;;;;;6.60;3.03;;;;;;;11.83;85.91;101174.72;5048077;28;20042;-64
2024/03/22 00:24:27;;;;;;;9.15;3.70;;;;;;;11.83;85.93;101166.63;5030914;28;20049;-65
2024/03/22 00:26:53;;;;;;;8.65;2.97;;;;;;;11.79;85.91;101163.06;5026870;28;20048;-65
2024/03/22 00:29:18;;;;;;;11.48;3.42;;;;;;;11.91;86.30;101154.88;5026862;28;20456;-67
2024/03/22 00:31:44;;;;;;;6.45;3.05;;;;;;;11.94;85.43;101154.19;5044878;28;20112;-65
2024/03/22 00:34:09;;;;;;;12.88;3.83;;;;;;;11.97;85.56;101153.47;5029846;28;20117;-65
2024/03/22 00:36:35;;;;;;;7.97;3.08;;;;;;;12.01;85.48;101146.22;5030235;28;20041;-64
2024/03/22 00:39:00;;;;;;;5.28;2.83;;;;;;;11.92;85.75;101150.25;5043269;28;20017;-64
2024/03/22 00:41:26;;;;;;;7.72;3.50;;;;;;;11.71;86.44;101155.94;5026557;28;20030;-64
2024/03/22 00:43:51;;;;;;;8.70;3.55;;;;;;;11.65;86.99;101158.09;5031217;28;20021;-64
2024/03/22 00:46:17;;;;;;;10.32;3.28;;;;;;;11.66;87.72;101154.28;5035423;28;20520;-65
2024/03/22 00:48:42;;;;;;;7.88;3.30;;;;;;;11.73;87.52;101143.66;5030418;28;20030;-64
2024/03/22 00:51:08;;;;;;;7.40;4.05;;;;;;;11.85;86.16;101126.56;5029343;28;20026;-64
2024/03/22 00:53:33;;;;;;;8.93;3.88;;;;;;;11.96;85.40;101121.44;5064009;28;20025;-65
2024/03/22 00:55:59;;;;;;;5.70;2.78;;;;;;;11.88;85.93;101117.81;5037878;28;20029;-65
2024/03/22 00:58:26;;;;;;;9.15;3.65;;;;;;;12.02;85.75;101120.78;5031921;28;20025;-65
2024/03/22 01:00:51;;;;;;;8.48;3.35;;;;;;;11.91;85.62;101117.09;5048729;28;20026;-64
2024/03/22 01:03:17;;;;;;;8.57;3.60;;;;;;;11.98;85.86;101117.22;5020299;28;20036;-64
2024/03/22 01:05:44;;;;;;;7.22;3.75;;;;;;;11.89;86.34;101105.84;5037366;28;20033;-64
2024/03/22 01:08:09;;;;;;;9.45;3.67;;;;;;;11.78;86.91;101111.03;5027047;28;20076;-63
2024/03/22 01:10:35;;;;;;;8.93;3.80;;;;;;;11.89;86.23;101108.56;5034173;28;20088;-64
2024/03/22 01:13:00;;;;;;;10.73;3.83;;;;;;;11.86;86.89;101098.47;5059855;28;20103;-63
2024/03/22 01:15:26;;;;;;;9.00;3.58;;;;;;;11.86;86.84;101084.97;5036218;28;20502;-64
2024/03/22 01:17:52;;;;;;;12.75;4.25;;;;;;;11.78;87.47;101084.03;5029490;28;20028;-64
2024/03/22 01:20:18;;;;;;;7.22;3.53;;;;;;;11.79;87.23;101082.09;5025974;28;20030;-64
2024/03/22 01:22:43;;;;;;;6.70;3.33;;;;;;;11.69;87.24;101069.19;5032531;28;20100;-65
2024/03/22 01:25:09;;;;;;;9.45;4.30;;;;;;;11.73;87.35;101070.81;5064993;28;20056;-65
2024/03/22 01:27:36;;;;;;;8.77;4.10;;;;;;;11.82;87.20;101067.94;5033495;28;20116;-64
2024/03/22 01:30:01;;;;;;;7.60;3.47;;;;;;;11.75;87.11;101063.16;5013674;28;20021;-64
2024/03/22 01:32:27;;;;;;;7.82;3.40;;;;;;;11.69;87.09;101058.41;5031307;28;20391;-64
2024/03/22 01:34:52;;;;;;;6.40;3.53;;;;;;;11.62;87.81;101052.78;5026241;28;20670;-64
2024/03/22 01:37:18;;;;;;;9.95;3.38;;;;;;;11.59;88.67;101050.81;5016479;28;20017;-64
2024/03/22 01:39:43;;;;;;;7.40;3.05;;;;;;;11.56;88.19;101048.81;5033914;28;20045;-65
2024/03/22 01:42:09;;;;;;;8.40;3.72;;;;;;;11.52;88.87;101045.22;5033919;28;20017;-64
2024/03/22 01:44:34;;;;;;;13.20;4.00;;;;;;;11.65;88.48;101035.91;5030294;28;20128;-64
2024/03/22 01:47:00;;;;;;;8.75;3.88;;;;;;;11.68;88.40;101022.53;5036519;28;20116;-63
2024/03/22 01:49:26;;;;;;;8.48;3.63;;;;;;;11.38;90.08;101015.28;5031463;28;20041;-63
2024/03/22 01:51:52;;;;;;;9.05;4.15;;;;;;;11.42;89.57;101002.66;5009543;28;20037;-63
2024/03/22 01:54:19;;;;;;;10.02;4.60;;;;;;;11.56;89.08;101008.34;5035655;28;20040;-63
2024/03/22 01:56:46;;;;;;;12.07;4.25;;;;;;;11.62;88.82;101002.31;5028412;28;20034;-67
2024/03/22 01:59:12;;;;;;;10.32;3.95;;;;;;;11.61;89.59;100995.34;5045664;28;20025;-64
2024/03/22 02:01:38;;;;;;;9.05;3.97;;;;;;;11.80;88.83;100991.94;5058395;28;20036;-64
2024/03/22 02:04:04;;;;;;;11.52;4.00;;;;;;;11.73;88.75;100984.47;5029541;28;20033;-65
2024/03/22 02:06:29;;;;;;;12.02;4.60;;;;;;;11.94;88.17;100978.75;5030366;28;20490;-64
2024/03/22 02:08:56;;;;;;;9.95;4.00;;;;;;;11.74;89.02;100982.56;5044403;28;20032;-63
2024/03/22 02:11:22;;;;;;;10.68;4.35;;;;;;;11.81;89.49;100987.34;5027020;28;20029;-64
2024/03/22 02:13:47;;;;;;;10.55;4.68;;;;;;;11.72;89.06;100988.31;5028600;28;20136;-64
2024/03/22 02:16:13;;;;;;;14.40;4.43;;;;;;;11.83;89.54;100979.66;5045244;28;20056;-63
2024/03/22 02:18:39;;;;;;;11.27;4.75;;;;;;;11.73;88.49;100986.38;5063631;28;20128;-65
2024/03/22 02:21:04;;;;;;;10.05;4.85;;;;;;;11.61;89.78;100973.00;5027297;28;20022;-64
2024/03/22 02:23:34;;;;;;;12.20;4.78;;;;;;;11.70;89.29;100962.81;5027252;28;20552;-64
2024/03/22 02:26:00;;;;;;;11.15;5.00;;;;;;;11.70;90.01;100960.13;5024267;28;20105;-65
2024/03/22 02:28:25;;;;;;;15.02;5.65;;;;;;;11.78;89.24;100954.53;5027294;28;20059;-65
2024/03/22 02:30:51;;;;;;;9.95;5.07;;;;;;;11.69;89.84;100959.34;5043189;28;20573;-64
2024/03/22 02:33:16;;;;;;;12.48;5.70;;;;;;;11.66;90.06;100959.25;5034226;28;20394;-64
2024/03/22 02:35:42;;;;;;;12.88;5.28;;;;;;;11.67;89.89;100952.75;5030366;28;20029;-64
2024/03/22 02:38:08;;;;;;;17.27;5.32;;;;;;;11.75;89.64;100952.53;5038211;28;20246;-64
2024/03/22 02:40:33;;;;;;;14.32;5.20;;;;;;;11.68;89.70;100957.00;5044873;28;20057;-64
2024/03/22 02:42:59;;;;;;;15.95;5.68;;;;;;;11.77;89.34;100957.56;5027145;28;20078;-65
2024/03/22 02:45:25;;;;;;;13.13;5.55;;;;;;;11.83;89.38;100952.69;5049489;28;20045;-65
2024/03/22 02:47:50;;;;;;;12.60;5.45;;;;;;;11.86;89.61;100944.66;5013032;28;20101;-64
2024/03/22 02:50:16;;;;;;;13.45;6.20;;;;;;;11.88;89.24;100950.47;5044369;28;20538;-65
2024/03/22 02:52:41;;;;;;;11.05;5.63;;;;;;;11.74;89.81;100944.78;5049590;28;20029;-65
2024/03/22 02:55:07;;;;;;;9.93;4.70;;;;;;;11.66;90.72;100962.75;5026060;28;20033;-65
2024/03/22 02:57:33;;;;;;;13.10;5.60;;;;;;;11.83;89.36;100961.53;5028707;28;20483;-65
2024/03/22 03:00:00;;;;;;;13.38;5.55;;;;;;;11.65;90.38;100960.38;5030746;28;20048;-65
2024/03/22 03:02:25;;;;;;;17.33;5.97;;;;;;;11.72;91.03;100944.38;5029952;28;20066;-64
2024/03/22 03:04:51;;;;;;;11.63;5.25;;;;;;;11.81;89.64;100944.16;5027448;28;20033;-64
2024/03/22 03:07:16;;;;;;;12.77;5.45;;;;;;;11.94;89.12;100935.56;5045340;28;20119;-64
2024/03/22 03:09:42;;;;;;;15.02;6.03;;;;;;;12.09;89.26;100937.38;5041384;28;20514;-64
2024/03/22 03:12:07;;;;;;;13.77;5.85;;;;;;;12.07;89.18;100928.88;5015867;28;20018;-65
2024/03/22 03:14:33;;;;;;;14.32;6.55;;;;;;;12.06;88.91;100934.63;5051018;28;20037;-63
2024/03/22 03:16:58;;;;;;;18.73;6.85;;;;;;;11.99;89.01;100921.78;5038100;28;20103;-64
2024/03/22 03:19:24;;;;;;;13.45;5.95;;;;;;;12.03;89.31;100925.31;5037086;28;20112;-65
2024/03/22 03:21:49;;;;;;;15.45;5.43;;;;;;;12.06;89.02;100921.88;5038281;28;20022;-64
2024/03/22 03:24:14;;;;;;;15.65;6.38;;;;;;;11.93;89.13;100911.59;5015497;28;20029;-64
2024/03/22 03:26:40;;;;;;;13.88;5.82;;;;;;;12.08;89.60;100908.06;5031241;28;20029;-65
2024/03/22 03:29:06;;;;;;;17.65;6.75;;;;;;;12.16;89.02;100907.81;5049088;28;20025;-65
2024/03/22 03:31:31;;;;;;;17.75;6.85;;;;;;;12.08;88.89;100898.00;5033350;28;20505;-66
2024/03/22 03:33:57;;;;;;;14.07;6.30;;;;;;;11.93;90.08;100898.91;5051613;28;20652;-64
2024/03/22 03:36:22;;;;;;;17.25;6.40;;;;;;;12.17;89.52;100892.41;5032369;28;20068;-64
2024/03/22 03:38:48;;;;;;;20.40;6.55;;;;;;;11.84;90.89;100894.88;5036462;28;20037;-64
2024/03/22 03:41:13;;;;;;;19.17;6.85;;;;;;;11.92;90.28;100897.34;5041426;28;20028;-63
2024/03/22 03:43:38;;;;;;;22.30;7.05;;;;;;;11.94;90.57;100892.38;5033885;28;20059;-66
2024/03/22 03:46:04;;;;;;;15.95;5.95;;;;;;;11.94;91.28;100884.28;5047643;28;20041;-64
2024/03/22 03:48:29;;;;;;;17.98;6.45;;;;;;;11.97;90.66;100885.47;5045394;28;20082;-64
2024/03/22 03:50:59;;;;;;;17.00;5.75;;;;;;;12.03;90.25;100884.81;5033669;28;20037;-66
2024/03/22 03:53:25;;;;;;;16.50;6.28;;;;;;;12.07;90.43;100882.19;5029029;28;20155;-64
2024/03/22 03:55:50;;;;;;;17.23;6.88;;;;;;;12.16;90.04;100872.72;5034246;28;20115;-63
2024/03/22 03:58:17;;;;;;;17.63;6.53;;;;;;;12.24;89.21;100871.69;5046980;28;21321;-65
2024/03/22 04:00:43;;;;;;;18.80;6.65;;;;;;;12.24;90.12;100871.69;5035107;28;20025;-64
2024/03/22 04:03:08;;;;;;;18.15;6.88;;;;;;;12.32;88.78;100862.56;5064701;28;20402;-64
2024/03/22 04:05:34;;;;;;;13.90;6.53;;;;;;;12.25;89.62;100859.75;5073850;28;20040;-64
2024/03/22 04:07:59;;;;;;;24.55;8.20;;;;;;;12.13;89.69;100849.16;5031014;28;20038;-64
2024/03/22 04:10:25;;;;;;;15.70;6.55;;;;;;;12.08;90.32;100846.72;5049928;28;20033;-64
2024/03/22 04:12:50;;;;;;;14.60;5.78;;;;;;;12.04;90.96;100842.44;5047272;28;20475;-64
2024/03/22 04:15:16;;;;;;;17.40;7.32;;;;;;;12.04;91.21;100845.88;5068831;28;20026;-63
2024/03/22 04:17:41;;;;;;;18.35;7.43;;;;;;;12.16;90.07;100821.41;5031597;28;20666;-64
2024/03/22 04:20:08;;;;;;;20.23;7.40;;;;;;;11.98;90.73;100833.81;5064484;28;20033;-64
2024/03/22 04:22:34;;;;;;;16.60;6.95;;;;;;;12.14;91.04;100820.22;5063505;28;20030;-64
2024/03/22 04:24:59;;;;;;;17.35;7.57;;;;;;;12.20;90.52;100814.16;5050261;28;20039;-63
2024/03/22 04:27:25;;;;;;;27.75;7.80;;;;;;;12.21;90.35;100810.34;5046564;28;20037;-64
2024/03/22 04:29:51;;;;;;;15.18;6.05;;;;;;;12.34;89.85;100803.59;5048015;28;20064;-64
2024/03/22 04:32:16;;;;;;;17.38;7.05;;;;;;;12.28;89.88;100793.44;5066867;28;20052;-65
2024/03/22 04:34:42;;;;;;;12.98;6.05;;;;;;;12.26;90.39;100780.31;5032336;28;20037;-64
2024/03/22 04:37:09;;;;;;;24.80;8.30;;;;;;;12.38;89.21;100793.63;5054814;28;20036;-64
2024/03/22 04:39:36;;;;;;;16.88;7.10;;;;;;;12.20;90.76;100783.66;5017480;28;20053;-64
2024/03/22 04:42:01;;;;;;;18.20;8.05;;;;;;;12.19;90.66;100782.91;5041599;28;20017;-64
2024/03/22 04:44:27;;;;;;;22.05;7.35;;;;;;;12.12;90.83;100784.69;5025497;28;20028;-64
2024/03/22 04:46:52;;;;;;;18.30;7.90;;;;;;;12.29;91.11;100784.97;5039861;28;20494;-64
2024/03/22 04:49:18;;;;;;;17.77;7.53;;;;;;;12.23;90.62;100780.25;5047035;28;20487;-64
2024/03/22 04:51:43;;;;;;;19.27;7.75;;;;;;;12.34;89.47;100779.28;5031635;28;20120;-64
2024/03/22 04:54:09;;;;;;;19.38;7.82;;;;;;;11.96;91.48;100768.66;5032089;28;20029;-65
2024/03/22 04:56:34;;;;;;;19.90;7.75;;;;;;;12.10;91.75;100765.41;5031927;28;20049;-65
2024/03/22 04:58:59;;;;;;;20.48;8.15;;;;;;;12.21;91.48;100767.13;5036891;28;20120;-64
2024/03/22 05:01:25;;;;;;;13.90;6.30;;;;;;;12.34;90.52;100763.06;5048157;28;20482;-64
2024/03/22 05:03:50;;;;;;;17.55;7.13;;;;;;;12.35;90.78;100759.22;5029237;28;20041;-65
2024/03/22 05:06:16;;;;;;;20.90;8.57;;;;;;;12.29;90.44;100765.31;5031738;28;20044;-65
2024/03/22 05:08:41;;;;;;;22.30;8.27;;;;;;;12.06;91.99;100762.63;5034413;28;20037;-63
2024/03/22 05:11:07;;;;;;;17.55;7.72;;;;;;;12.06;92.08;100759.16;5027523;28;20029;-64
2024/03/22 05:13:33;;;;;;;24.55;8.48;;;;;;;12.00;93.42;100753.28;5040490;28;20041;-64
2024/03/22 05:15:58;;;;;;;21.35;8.40;;;;;;;12.12;93.00;100745.00;5032971;28;20060;-64
2024/03/22 05:18:24;;;;;;;23.02;8.38;;;;;;;12.22;91.57;100741.69;5031332;28;20609;-63
2024/03/22 05:20:49;;;;;;;19.98;8.30;;;;;;;12.29;92.16;100736.38;5031628;28;20025;-64
2024/03/22 05:23:16;;;;;;;21.80;9.65;;;;;;;12.25;91.63;100745.56;5030730;28;20025;-65
2024/03/22 05:25:44;;;;;;;19.08;8.57;;;;;;;12.37;91.21;100750.75;5031529;28;20033;-64
2024/03/22 05:28:10;;;;;;;27.60;8.27;;;;;;;12.15;91.73;100746.97;5026085;28;20091;-65
2024/03/22 05:30:35;;;;;;;20.83;8.18;;;;;;;12.25;91.05;100745.56;5012440;28;20033;-65
2024/03/22 05:33:01;;;;;;;19.83;8.68;;;;;;;12.35;91.35;100745.72;5061123;28;20419;-65
2024/03/22 05:35:27;;;;;;;16.52;7.13;;;;;;;12.43;91.35;100744.69;5062452;28;20448;-64
2024/03/22 05:37:52;;;;;;;23.50;8.25;;;;;;;12.62;89.87;100741.84;5041083;28;20092;-64
2024/03/22 05:40:18;;;;;;;25.85;7.97;;;;;;;12.36;91.13;100739.19;5013663;28;20029;-64
2024/03/22 05:42:43;;;;;;;16.92;7.38;;;;;;;12.52;90.46;100739.78;5011098;28;20411;-64
2024/03/22 05:45:09;;;;;;;22.35;8.50;;;;;;;12.59;90.23;100739.09;5031874;28;20044;-65
2024/03/22 05:47:35;;;;;;;20.50;8.68;;;;;;;12.65;90.33;100735.72;5061843;28;20147;-64
2024/03/22 05:50:01;;;;;;;25.90;9.35;;;;;;;12.53;90.71;100732.47;5017273;28;20064;-64
2024/03/22 05:52:27;;;;;;;21.63;8.48;;;;;;;12.38;90.94;100730.72;5032058;28;20033;-64
2024/03/22 05:54:52;;;;;;;24.30;9.80;;;;;;;12.48;91.29;100733.56;5030511;28;20022;-64
2024/03/22 05:57:18;;;;;;;24.13;8.57;;;;;;;12.54;90.37;100732.09;5015577;28;20045;-65
2024/03/22 05:59:43;;;;;;;24.10;8.63;;;;;;;12.63;90.91;100729.13;5033746;28;20128;-65
2024/03/22 06:02:09;;;;;;;26.77;9.23;;;;;;;12.62;90.58;100722.94;5032084;28;20026;-65
2024/03/22 06:04:34;;;;;;;27.40;10.40;;;;;;;12.52;90.83;100723.56;5031887;28;20518;-64
2024/03/22 06:07:03;;;;;;;24.30;8.75;;;;;;;12.60;91.07;100727.94;5042480;28;20025;-65
2024/03/22 06:09:45;;;;;;;21.88;8.30;;;;;;;12.49;91.45;100721.63;5030472;28;20363;-64
2024/03/22 06:12:21;;;;;;;23.65;9.45;;;;;;;12.67;91.41;100727.25;5031594;28;20029;-65
2024/03/22 06:14:48;;;;;;;24.73;9.25;;;;;;;12.57;91.66;100727.88;5027529;28;20057;-65
2024/03/22 06:17:13;;;;;;;21.08;8.27;;;;;;;12.70;91.20;100721.88;5046950;28;20029;-64
2024/03/22 06:19:39;;;;;;;30.60;9.07;;;;;;;12.73;90.52;100716.91;5018725;28;20041;-64
2024/03/22 06:22:05;;;;;;;25.35;8.60;;;;;;;12.79;91.11;100718.13;5040008;28;20083;-65
2024/03/22 06:24:30;;;;;;;29.05;10.15;;;;;;;12.90;90.50;100711.72;5052301;28;20022;-64
2024/03/22 06:26:56;;;;;;;30.55;8.90;;;;;;;12.80;90.58;100698.06;5033625;28;20044;-68
2024/03/22 06:29:21;;;;;;;24.75;9.38;;;;;;;12.88;91.00;100702.41;5042349;28;20032;-65
2024/03/22 06:31:47;;;;;;;26.08;10.07;;;;;;;12.96;90.80;100704.84;5036678;28;20029;-65
2024/03/22 06:34:13;;;;;;;28.63;10.18;;;;;;;12.99;90.18;100706.03;5049257;28;20119;-63
2024/03/22 06:36:39;;;;;;;28.95;10.88;;;;;;;13.09;89.89;100702.66;5020406;28;20042;-66
2024/03/22 06:39:10;;;;;;;27.00;9.50;;;;;;;13.09;89.69;100706.16;5029999;28;20079;-65
2024/03/22 06:41:36;;;;;;;21.05;9.40;;;;;;;13.01;90.82;100703.72;5036755;28;20056;-65
2024/03/22 06:44:01;;;;;;;31.90;10.40;;;;;;;13.10;90.79;100688.03;5037825;28;20092;-65
2024/03/22 06:46:27;;;;;;;28.70;10.02;;;;;;;13.25;89.85;100689.72;5049387;28;20033;-64
2024/03/22 06:48:53;;;;;;;26.25;9.35;;;;;;;13.22;89.38;100693.19;5036040;28;20033;-64
2024/03/22 06:51:18;;;;;;;25.95;10.10;;;;;;;13.13;90.48;100679.94;5064632;28;20116;-65
2024/03/22 06:53:45;;;;;;;31.17;10.70;;;;;;;13.26;90.18;100672.31;5035954;28;20029;-66
2024/03/22 06:56:14;;;;;;;30.08;10.90;;;;;;;13.07;90.39;100661.72;5037842;28;20046;-65
2024/03/22 06:58:40;;;;;;;33.75;10.57;;;;;;;13.10;91.65;100659.06;5050422;28;20144;-68
2024/03/22 07:01:06;;;;;;;28.75;11.38;;;;;;;13.05;90.91;100666.72;5050221;28;20125;-66
2024/03/22 07:03:31;;;;;;;35.40;11.20;;;;;;;13.02;91.36;100659.31;5017965;28;20029;-65
2024/03/22 07:06:00;;;;;;;27.30;9.70;;;;;;;13.13;91.16;100642.09;5047882;28;20034;-66
2024/03/22 07:08:26;;;;;;;24.58;10.48;;;;;;;12.92;92.50;100644.53;5031444;28;20046;-65
2024/03/22 07:10:53;;;;;;;35.65;11.07;;;;;;;13.01;91.55;100649.63;5047267;28;20037;-65
2024/03/22 07:13:18;;;;;;;26.92;10.63;;;;;;;13.03;92.61;100647.34;5031490;28;20029;-65
2024/03/22 07:15:45;;;;;;;38.83;12.07;;;;;;;12.83;93.01;100654.09;5021636;28;20070;-65
2024/03/22 07:18:10;;;;;;;28.20;11.10;;;;;;;12.96;93.02;100647.28;5031555;28;20029;-66
2024/03/22 07:20:36;;;;;;;26.83;10.25;;;;;;;13.07;92.41;100642.78;5018710;28;20376;-64
2024/03/22 07:23:02;;;;;;;33.83;12.02;;;;;;;13.23;91.39;100638.72;5034395;28;20174;-68
2024/03/22 07:25:27;;;;;;;29.17;11.32;;;;;;;13.33;91.51;100648.06;5036876;28;20033;-65
2024/03/22 07:27:52;;;;;;;29.83;10.73;;;;;;;13.20;91.97;100635.97;5035161;28;20032;-65
2024/03/22 07:30:18;;;;;;;30.23;10.77;;;;;;;13.16;91.40;100632.47;5050196;28;20037;-65
2024/03/22 07:32:47;;;;;;;34.30;10.13;;;;;;;13.04;92.97;100630.03;5037022;28;20042;-66
2024/03/22 07:35:12;;;;;;;29.02;10.90;;;;;;;13.26;91.83;100627.13;5056656;28;20116;-65
2024/03/22 07:37:38;;;;;;;27.40;10.27;;;;;;;13.32;91.97;100628.34;5032454;28;20155;-65
2024/03/22 07:40:05;;;;;;;35.10;11.95;;;;;;;13.13;92.45;100628.56;5018037;28;20037;-65
2024/03/22 07:42:30;;;;;;;34.70;11.35;;;;;;;13.45;91.38;100631.56;5048376;28;20593;-65
2024/03/22 07:44:56;;;;;;;30.55;11.60;;;;;;;13.49;91.34;100635.84;5030943;28;20091;-66
2024/03/22 07:47:21;;;;;;;34.15;11.70;;;;;;;13.44;91.49;100632.69;5037135;28;20061;-65
2024/03/22 07:49:47;;;;;;;28.90;10.50;;;;;;;13.37;91.66;100629.94;5029505;28;20037;-64
2024/03/22 07:52:12;;;;;;;34.80;11.60;;;;;;;13.38;91.98;100628.78;5035458;28;20461;-65
2024/03/22 07:54:38;;;;;;;28.00;11.57;;;;;;;13.24;92.46;100629.44;5037687;28;20053;-65
2024/03/22 07:57:03;;;;;;;29.25;10.70;;;;;;;13.34;92.89;100642.28;5036122;28;20399;-65
2024/03/22 07:59:29;;;;;;;32.78;11.15;;;;;;;13.21;93.69;100649.13;5033981;28;20065;-65
2024/03/22 08:01:55;;;;;;;32.97;11.45;;;;;;;12.95;94.49;100641.09;5036955;28;20025;-65
2024/03/22 08:04:20;;;;;;;34.60;11.80;;;;;;;13.01;94.95;100626.09;5038042;28;20120;-65
2024/03/22 08:06:46;;;;;;;33.97;11.50;;;;;;;13.06;94.47;100630.44;5030554;28;20048;-65
2024/03/22 08:09:11;;;;;;;34.22;11.77;;;;;;;13.51;93.47;100630.06;5035052;28;20029;-65
2024/03/22 08:11:37;;;;;;;32.20;11.68;;;;;;;13.43;93.45;100633.88;5031208;28;20037;-64
2024/03/22 08:14:03;;;;;;;38.70;11.95;;;;;;;13.49;92.75;100626.97;5036412;28;20028;-64
2024/03/22 08:16:30;;;;;;;44.50;11.43;;;;;;;13.50;92.73;100621.16;5036201;28;20086;-67
2024/03/22 08:18:55;;;;;;;30.95;11.20;;;;;;;13.44;93.12;100625.38;5031105;28;20064;-64
2024/03/22 08:21:22;;;;;;;27.65;11.30;;;;;;;13.51;91.21;100625.41;5044699;28;20498;-64
2024/03/22 08:23:48;;;;;;;36.13;11.73;;;;;;;13.46;91.51;100617.66;5036406;28;20064;-64
2024/03/22 08:26:13;;;;;;;34.58;11.77;;;;;;;13.22;92.90;100622.88;5039498;28;20071;-65
2024/03/22 08:28:39;;;;;;;29.27;11.20;;;;;;;13.46;92.91;100616.88;5054221;28;20089;-64
2024/03/22 08:31:05;;;;;;;30.38;11.25;;;;;;;13.63;92.83;100616.22;5016434;28;20037;-65
2024/03/22 08:33:31;;;;;;;27.63;10.20;;;;;;;13.58;94.18;100611.97;5037578;28;20059;-63
2024/03/22 08:35:56;;;;;;;30.00;11.35;;;;;;;13.63;94.48;100604.63;5031721;28;20280;-62
2024/03/22 08:38:23;;;;;;;32.15;11.38;;;;;;;13.51;94.21;100609.19;5021113;28;20089;-63
2024/03/22 08:40:50;;;;;;;30.67;10.27;;;;;;;13.62;94.42;100614.69;5041965;28;20400;-63
2024/03/22 08:43:16;;;;;;;30.80;10.93;;;;;;;13.43;95.93;100604.09;5027550;28;20032;-65
2024/03/22 08:45:44;;;;;;;26.27;10.23;;;;;;;13.43;95.78;100610.28;5035069;28;20029;-65
2024/03/22 08:48:10;;;;;;;30.73;11.27;;;;;;;13.30;96.06;100608.22;5036419;28;20049;-63
2024/03/22 08:50:35;;;;;;;27.70;10.25;;;;;;;13.41;98.05;100611.81;5027826;28;20033;-65
2024/03/22 08:53:04;;;;;;;31.10;11.50;;;;;;;13.50;97.49;100606.84;5019576;28;20593;-68
2024/03/22 08:55:30;;;;;;;30.52;10.10;;;;;;;13.39;98.55;100595.94;5032383;28;20037;-65
2024/03/22 08:57:58;;;;;;;31.85;11.55;;;;;;;13.47;96.69;100592.13;5030827;28;20029;-65
2024/03/22 09:00:24;;;;;;;30.77;10.73;;;;;;;13.49;97.91;100594.50;5026173;28;20064;-64
2024/03/22 09:02:49;;;;;;;26.15;11.65;;;;;;;13.46;98.20;100587.09;5032544;28;20072;-65
2024/03/22 09:05:15;;;;;;;26.15;9.95;;;;;;;13.38;99.38;100599.03;5060832;28;20045;-65
2024/03/22 09:07:40;;;;;;;31.15;11.13;;;;;;;13.37;99.27;100594.78;5043502;28;20041;-65
2024/03/22 09:10:06;;;;;;;28.98;9.90;;;;;;;13.53;98.39;100589.84;5031957;28;20075;-64
2024/03/22 09:12:32;;;;;;;27.83;10.68;;;;;;;13.52;99.13;100589.09;5026937;28;20030;-65
2024/03/22 09:14:57;;;;;;;28.02;10.50;;;;;;;13.58;98.23;100587.59;5014292;28;20037;-64
2024/03/22 09:17:23;;;;;;;28.40;11.75;;;;;;;13.70;98.83;100580.31;5031649;28;20033;-66
2024/03/22 09:19:48;;;;;;;24.60;9.55;;;;;;;13.66;97.66;100580.31;5032456;28;20119;-65
2024/03/22 09:22:14;;;;;;;35.15;11.32;;;;;;;13.71;98.25;100579.94;5045736;28;20021;-65
2024/03/22 09:24:40;;;;;;;31.98;9.95;;;;;;;13.66;98.79;100574.91;5046181;28;20029;-66
2024/03/22 09:27:08;;;;;;;30.35;10.23;;;;;;;13.46;100.00;100573.59;5044296;28;20099;-65
2024/03/22 09:29:34;;;;;;;27.58;9.55;;;;;;;13.54;100.00;100573.28;5028040;28;20029;-65
2024/03/22 09:32:00;;;;;;;24.25;9.35;;;;;;;13.63;99.53;100569.47;5029095;28;20514;-64
2024/03/22 09:34:25;;;;;;;27.33;9.82;;;;;;;13.38;100.00;100571.97;5028465;28;20033;-66
2024/03/22 09:36:51;;;;;;;25.52;10.38;;;;;;;13.63;100.00;100566.75;5013430;28;20037;-65
2024/03/22 09:39:16;;;;;;;29.58;10.27;;;;;;;13.80;99.36;100555.25;5059339;28;20029;-65
2024/03/22 09:41:45;;;;;;;26.50;9.02;;;;;;;13.66;98.60;100555.94;5030788;28;20029;-66
2024/03/22 09:44:16;;;;;;;25.50;8.68;;;;;;;13.72;99.65;100554.44;5029156;28;20040;-66
2024/03/22 09:46:46;;;;;;;29.13;9.68;;;;;;;13.47;100.00;100556.22;5035813;28;20116;-64
2024/03/22 09:49:12;;;;;;;33.95;9.88;;;;;;;13.45;100.00;100543.03;5044921;28;20035;-65
2024/03/22 09:51:39;;;;;;;27.83;10.02;;;;;;;13.48;100.00;100552.34;5031454;28;20060;-66
2024/03/22 09:54:05;;;;;;;33.22;10.60;;;;;;;13.43;100.00;100548.03;5045599;28;20112;-66
2024/03/22 09:56:31;;;;;;;24.95;8.75;;;;;;;13.52;100.00;100545.03;5043683;28;20053;-65
2024/03/22 09:58:59;;;;;;;30.85;10.27;;;;;;;13.51;100.00;100544.25;5030521;28;20029;-66
2024/03/22 10:01:25;;;;;;;28.50;10.23;;;;;;;13.64;100.00;100533.91;5036554;28;20041;-66
2024/03/22 10:03:54;;;;;;;27.80;10.07;;;;;;;13.54;100.00;100531.91;5029048;28;20029;-66
2024/03/22 10:06:20;;;;;;;27.63;8.25;;;;;;;13.45;100.00;100539.59;5031006;28;20026;-67
2024/03/22 10:08:46;;;;;;;27.73;9.88;;;;;;;13.38;100.00;100528.69;5031094;28;20525;-64
2024/03/22 10:11:12;;;;;;;28.25;9.98;;;;;;;13.31;100.00;100523.25;5034845;28;20034;-65
2024/03/22 10:13:37;;;;;;;25.85;8.90;;;;;;;13.06;100.00;100511.47;5033662;28;20045;-65
2024/03/22 10:16:03;;;;;;;24.60;9.77;;;;;;;13.22;100.00;100518.16;5045981;28;20518;-65
2024/03/22 10:18:29;;;;;;;25.45;9.05;;;;;;;13.06;100.00;100514.97;5034430;28;20040;-66
2024/03/22 10:21:04;;;;;;;25.35;8.32;;;;;;;13.24;100.00;100509.69;5043630;28;20029;-66
2024/03/22 10:23:31;;;;;;;23.15;7.70;;;;;;;13.19;100.00;100507.31;5030516;28;20033;-66
2024/03/22 10:25:57;;;;;;;23.02;8.25;;;;;;;12.93;100.00;100507.47;5030136;28;20013;-67
2024/03/22 10:28:27;;;;;;;20.65;8.20;;;;;;;13.20;100.00;100515.03;5038789;28;20532;-66
2024/03/22 10:30:53;;;;;;;24.35;8.82;;;;;;;13.12;100.00;100520.78;5036438;28;20144;-66
2024/03/22 10:33:25;;;;;;;19.50;8.05;;;;;;;13.26;100.00;100518.16;5022477;28;20473;-65
2024/03/22 10:35:54;;;;;;;24.00;8.52;;;;;;;13.42;100.00;100524.88;5035197;28;20107;-66
2024/03/22 10:38:21;;;;;;;25.83;9.38;;;;;;;13.37;100.00;100522.53;5036180;28;20131;-67
2024/03/22 10:40:47;;;;;;;21.73;7.63;;;;;;;13.35;100.00;100519.41;5036936;28;20605;-65
2024/03/22 10:43:14;;;;;;;25.17;9.52;;;;;;;13.37;100.00;100527.94;5050037;28;20017;-67
2024/03/22 10:45:40;;;;;;;20.92;8.45;;;;;;;13.39;100.00;100516.72;5046004;28;20041;-66
2024/03/22 10:48:10;;;;;;;19.42;7.47;;;;;;;13.37;100.00;100524.44;5037113;28;20455;-66
2024/03/22 10:50:40;;;;;;;28.05;8.63;;;;;;;13.17;100.00;100517.72;5040164;28;20450;-66
2024/03/22 10:53:11;;;;;;;16.20;6.57;;;;;;;13.10;100.00;100521.16;5033236;28;20022;-66
2024/03/22 10:55:43;;;;;;;15.93;6.25;;;;;;;13.02;100.00;100516.81;5012898;28;20033;-66
2024/03/22 10:58:21;;;;;;;14.13;6.15;;;;;;;13.14;100.00;100503.03;5013917;28;20563;-68
2024/03/22 11:00:47;;;;;;;22.80;7.85;;;;;;;13.24;100.00;100505.03;5046539;28;20080;-66
2024/03/22 11:03:13;;;;;;;17.92;7.10;;;;;;;13.37;100.00;100508.22;5036973;28;20017;-65
2024/03/22 11:05:54;;;;;;;14.27;6.28;;;;;;;13.32;100.00;100501.22;5037670;28;20036;-68
2024/03/22 11:08:30;;;;;;;15.85;6.55;;;;;;;13.17;100.00;100504.19;5043419;28;20159;-64